createdAt,value
2023-04-25T00:00:17.882Z,101626.09
2023-04-25T00:02:47.546Z,101624.41
2023-04-25T00:05:17.367Z,101633.22
2023-04-25T00:07:47.013Z,101630.56
2023-04-25T00:10:14.947Z,101635.81
2023-04-25T00:12:42.911Z,101639.28
2023-04-25T00:15:11.680Z,101638.41
2023-04-25T00:17:39.974Z,101637.50
2023-04-25T00:20:10.322Z,101634.03
2023-04-25T00:22:39.248Z,101635.00
2023-04-25T00:25:09.446Z,101637.72
2023-04-25T00:27:37.819Z,101636.97
2023-04-25T00:30:06.820Z,101631.84
2023-04-25T00:32:34.725Z,101639.03
2023-04-25T00:35:02.660Z,101647.06
2023-04-25T00:37:30.570Z,101649.72
2023-04-25T00:39:59.940Z,101639.91
2023-04-25T00:42:29.216Z,101648.75
2023-04-25T00:44:57.147Z,101648.66
2023-04-25T00:47:25.059Z,101643.25
2023-04-25T00:49:54.320Z,101645.84
2023-04-25T00:52:22.226Z,101635.22
2023-04-25T00:54:50.147Z,101648.47
2023-04-25T00:57:18.170Z,101641.41
2023-04-25T00:59:47.649Z,101637.94
2023-04-25T01:02:15.710Z,101645.16
2023-04-25T01:04:43.672Z,101649.72
2023-04-25T01:07:11.729Z,101627.25
2023-04-25T01:09:39.653Z,101653.53
2023-04-25T01:12:07.802Z,101640.31
2023-04-25T01:14:36.114Z,101641.25
2023-04-25T01:17:05.448Z,101654.59
2023-04-25T01:19:33.349Z,101658.16
2023-04-25T01:22:02.644Z,101667.94
2023-04-25T01:24:30.554Z,101675.00
2023-04-25T01:26:58.464Z,101675.00
2023-04-25T01:29:26.340Z,101672.28
2023-04-25T01:31:54.344Z,101664.28
2023-04-25T01:34:22.467Z,101666.00
2023-04-25T01:36:51.020Z,101676.63
2023-04-25T01:39:20.255Z,101669.53
2023-04-25T01:41:48.365Z,101670.44
2023-04-25T01:44:16.375Z,101677.53
2023-04-25T01:46:44.287Z,101671.31
2023-04-25T01:49:12.119Z,101673.97
2023-04-25T01:51:40.032Z,101670.44
2023-04-25T01:54:08.421Z,101673.13
2023-04-25T01:56:39.507Z,101674.91
2023-04-25T01:59:07.592Z,101668.72
2023-04-25T02:01:35.556Z,101674.91
2023-04-25T02:04:03.691Z,101678.47
2023-04-25T02:06:31.910Z,101674.03
2023-04-25T02:08:59.783Z,101682.91
2023-04-25T02:11:27.744Z,101681.19
2023-04-25T02:13:57.014Z,101679.44
2023-04-25T02:16:24.993Z,101682.19
2023-04-25T02:18:53.835Z,101683.09
2023-04-25T02:21:21.752Z,101680.56
2023-04-25T02:23:50.710Z,101690.31
2023-04-25T02:26:18.770Z,101687.78
2023-04-25T02:28:46.680Z,101685.13
2023-04-25T02:31:16.049Z,101686.06
2023-04-25T02:33:44.010Z,101682.56
2023-04-25T02:36:11.928Z,101684.31
2023-04-25T02:38:40.239Z,101693.22
2023-04-25T02:41:08.214Z,101689.59
2023-04-25T02:43:36.129Z,101701.06
2023-04-25T02:46:04.020Z,101705.38
2023-04-25T02:48:33.271Z,101701.75
2023-04-25T02:51:01.193Z,101707.91
2023-04-25T02:53:29.044Z,101698.09
2023-04-25T02:55:59.320Z,101711.38
2023-04-25T02:58:27.328Z,101706.06
2023-04-25T03:00:55.692Z,101712.25
2023-04-25T03:03:23.751Z,101705.19
2023-04-25T03:05:53.301Z,101709.59
2023-04-25T03:08:21.208Z,101709.59
2023-04-25T03:10:49.336Z,101707.06
2023-04-25T03:13:17.290Z,101702.66
2023-04-25T03:15:45.485Z,101703.66
2023-04-25T03:18:13.361Z,101694.91
2023-04-25T03:20:42.731Z,101695.91
2023-04-25T03:23:11.971Z,101693.47
2023-04-25T03:25:39.881Z,101690.09
2023-04-25T03:28:07.759Z,101700.91
2023-04-25T03:30:35.630Z,101691.34
2023-04-25T03:33:03.734Z,101700.31
2023-04-25T03:35:31.664Z,101692.53
2023-04-25T03:37:59.536Z,101697.97
2023-04-25T03:40:28.821Z,101702.56
2023-04-25T03:42:56.695Z,101695.63
2023-04-25T03:45:24.584Z,101701.97
2023-04-25T03:47:52.497Z,101702.19
2023-04-25T03:50:20.576Z,101689.94
2023-04-25T03:52:48.505Z,101700.69
2023-04-25T03:55:16.452Z,101704.34
2023-04-25T03:57:45.730Z,101707.06
2023-04-25T04:00:15.178Z,101709.75
2023-04-25T04:02:45.329Z,101707.13
2023-04-25T04:05:13.922Z,101722.16
2023-04-25T04:07:43.650Z,101713.31
2023-04-25T04:10:11.966Z,101711.56
2023-04-25T04:12:39.918Z,101710.66
2023-04-25T04:15:10.153Z,101724.75
2023-04-25T04:17:38.104Z,101729.94
2023-04-25T04:20:08.774Z,101725.41
2023-04-25T04:22:37.414Z,101732.38
2023-04-25T04:25:06.853Z,101737.69
2023-04-25T04:27:35.427Z,101744.66
2023-04-25T04:30:04.338Z,101739.34
2023-04-25T04:32:35.684Z,101737.59
2023-04-25T04:35:04.620Z,101739.38
2023-04-25T04:37:32.493Z,101745.59
2023-04-25T04:40:00.381Z,101743.81
2023-04-25T04:42:29.206Z,101748.25
2023-04-25T04:44:57.107Z,101746.53
2023-04-25T04:47:25.016Z,101744.81
2023-04-25T04:49:54.324Z,101759.88
2023-04-25T04:52:22.182Z,101759.03
2023-04-25T04:54:50.060Z,101761.75
2023-04-25T04:57:18.965Z,101753.78
2023-04-25T04:59:47.049Z,101759.13
2023-04-25T05:02:15.004Z,101756.53
2023-04-25T05:04:42.986Z,101757.44
2023-04-25T05:07:12.260Z,101756.63
2023-04-25T05:09:40.137Z,101763.75
2023-04-25T05:12:08.270Z,101764.75
2023-04-25T05:14:36.163Z,101764.81
2023-04-25T05:17:05.770Z,101767.50
2023-04-25T05:19:34.308Z,101765.88
2023-04-25T05:22:02.184Z,101770.34
2023-04-25T05:24:31.550Z,101785.44
2023-04-25T05:26:59.570Z,101783.75
2023-04-25T05:29:27.414Z,101781.16
2023-04-25T05:31:55.335Z,101772.41
2023-04-25T05:34:23.217Z,101775.13
2023-04-25T05:36:51.268Z,101775.16
2023-04-25T05:39:19.162Z,101781.41
2023-04-25T05:41:48.458Z,101789.34
2023-04-25T05:44:16.964Z,101785.81
2023-04-25T05:46:44.919Z,101790.25
2023-04-25T05:49:12.889Z,101785.84
2023-04-25T05:51:40.752Z,101791.72
2023-04-25T05:54:08.745Z,101788.69
2023-04-25T05:56:36.649Z,101785.72
2023-04-25T05:59:06.027Z,101798.75
2023-04-25T06:01:33.978Z,101798.66
2023-04-25T06:04:03.003Z,101792.34
2023-04-25T06:06:31.252Z,101794.13
2023-04-25T06:08:59.187Z,101798.31
2023-04-25T06:11:27.063Z,101791.97
2023-04-25T06:13:55.288Z,101796.38
2023-04-25T06:16:26.957Z,101799.81
2023-04-25T06:18:55.109Z,101798.00
2023-04-25T06:21:23.109Z,101796.16
2023-04-25T06:23:51.334Z,101797.06
2023-04-25T06:26:20.408Z,101798.00
2023-04-25T06:28:48.353Z,101797.97
2023-04-25T06:31:16.326Z,101801.47
2023-04-25T06:33:45.621Z,101792.56
2023-04-25T06:36:13.468Z,101798.59
2023-04-25T06:38:41.508Z,101803.78
2023-04-25T06:41:09.514Z,101800.97
2023-04-25T06:43:37.436Z,101805.22
2023-04-25T06:46:05.361Z,101809.50
2023-04-25T06:48:33.297Z,101810.25
2023-04-25T06:51:02.586Z,101811.84
2023-04-25T06:53:30.476Z,101819.66
2023-04-25T06:55:58.375Z,101812.41
2023-04-25T06:58:27.157Z,101808.72
2023-04-25T07:00:55.046Z,101808.50
2023-04-25T07:03:23.255Z,101812.78
2023-04-25T07:05:51.228Z,101816.09
2023-04-25T07:08:20.830Z,101810.53
2023-04-25T07:10:50.131Z,101810.34
2023-04-25T07:13:18.117Z,101810.31
2023-04-25T07:15:46.062Z,101799.50
2023-04-25T07:18:13.959Z,101804.69
2023-04-25T07:20:41.882Z,101802.84
2023-04-25T07:23:09.740Z,101800.88
2023-04-25T07:25:39.359Z,101805.19
2023-04-25T07:28:07.285Z,101792.78
2023-04-25T07:30:35.900Z,101790.78
2023-04-25T07:33:04.005Z,101799.44
2023-04-25T07:35:32.043Z,101780.66
2023-04-25T07:38:00.009Z,101777.81
2023-04-25T07:40:28.195Z,101784.00
2023-04-25T07:42:57.509Z,101782.84
2023-04-25T07:45:25.714Z,101776.44
2023-04-25T07:47:53.751Z,101774.56
2023-04-25T07:50:21.871Z,101775.31
2023-04-25T07:52:49.880Z,101776.06
2023-04-25T07:55:18.011Z,101784.88
2023-04-25T07:57:45.884Z,101781.31
2023-04-25T08:00:16.418Z,101783.09
2023-04-25T08:02:44.373Z,101786.50
2023-04-25T08:05:15.343Z,101796.88
2023-04-25T08:07:44.600Z,101781.50
2023-04-25T08:10:12.584Z,101780.44
2023-04-25T08:12:40.692Z,101788.28
2023-04-25T08:15:09.910Z,101784.59
2023-04-25T08:17:39.214Z,101785.31
2023-04-25T08:20:08.329Z,101793.31
2023-04-25T08:22:36.558Z,101790.59
2023-04-25T08:25:04.741Z,101799.38
2023-04-25T08:27:32.614Z,101799.25
2023-04-25T08:30:00.577Z,101805.31
2023-04-25T08:32:29.683Z,101806.22
2023-04-25T08:35:00.084Z,101812.53
2023-04-25T08:37:27.996Z,101815.16
2023-04-25T08:39:57.180Z,101818.72
2023-04-25T08:42:25.530Z,101817.81
2023-04-25T08:44:53.884Z,101815.91
2023-04-25T08:47:21.990Z,101821.06
2023-04-25T08:49:50.593Z,101816.53
2023-04-25T08:52:19.923Z,101824.28
2023-04-25T08:54:47.917Z,101825.97
2023-04-25T08:57:16.493Z,101822.25
2023-04-25T08:59:46.751Z,101831.00
2023-04-25T09:02:17.715Z,101826.50
2023-04-25T09:04:45.957Z,101837.00
2023-04-25T09:07:16.711Z,101825.19
2023-04-25T09:09:46.084Z,101832.06
2023-04-25T09:12:13.948Z,101824.81
2023-04-25T09:14:43.424Z,101830.16
2023-04-25T09:17:11.417Z,101832.72
2023-04-25T09:19:42.071Z,101830.78
2023-04-25T09:22:10.639Z,101823.44
2023-04-25T09:24:39.419Z,101825.84
2023-04-25T09:27:09.247Z,101833.69
2023-04-25T09:29:38.635Z,101833.75
2023-04-25T09:32:14.028Z,101824.88
2023-04-25T09:34:43.068Z,101834.44
2023-04-25T09:37:11.675Z,101841.47
2023-04-25T09:39:40.706Z,101858.19
2023-04-25T09:42:09.952Z,101846.47
2023-04-25T09:44:38.124Z,101847.16
2023-04-25T09:47:06.155Z,101854.13
2023-04-25T09:49:34.081Z,101847.81
2023-04-25T09:52:02.138Z,101845.88
2023-04-25T09:54:29.980Z,101843.00
2023-04-25T09:56:57.949Z,101846.34
2023-04-25T09:59:27.204Z,101845.28
2023-04-25T10:01:55.202Z,101856.53
2023-04-25T10:04:25.684Z,101840.25
2023-04-25T10:06:54.490Z,101844.34
2023-04-25T10:09:22.495Z,101848.38
2023-04-25T10:11:50.480Z,101839.94
2023-04-25T10:14:18.603Z,101843.06
2023-04-25T10:16:47.883Z,101827.06
2023-04-25T10:19:16.362Z,101846.81
2023-04-25T10:21:48.908Z,101850.13
2023-04-25T10:24:16.994Z,101843.78
2023-04-25T10:26:44.958Z,101856.75
2023-04-25T10:29:12.835Z,101856.31
2023-04-25T10:31:48.478Z,101859.38
2023-04-25T10:34:16.432Z,101856.31
2023-04-25T10:36:44.312Z,101858.63
2023-04-25T10:39:12.219Z,101860.88
2023-04-25T10:41:48.450Z,101851.41
2023-04-25T10:44:16.559Z,101854.56
2023-04-25T10:46:44.458Z,101863.53
2023-04-25T10:49:15.024Z,101859.97
2023-04-25T10:54:20.078Z,101857.28
2023-04-25T10:56:47.972Z,101856.78
2023-04-25T10:59:16.775Z,101855.56
2023-04-25T11:01:46.014Z,101850.78
2023-04-25T11:04:25.825Z,101854.53
2023-04-25T11:07:11.684Z,101849.44
2023-04-25T11:09:41.125Z,101854.28
2023-04-25T11:12:10.102Z,101852.03
2023-04-25T11:14:38.398Z,101852.78
2023-04-25T11:17:06.835Z,101859.53
2023-04-25T11:19:36.165Z,101859.25
2023-04-25T11:22:04.352Z,101856.94
2023-04-25T11:24:32.786Z,101848.28
2023-04-25T11:27:00.898Z,101847.03
2023-04-25T11:29:28.846Z,101847.13
2023-04-25T11:31:57.884Z,101845.44
2023-04-25T11:34:26.059Z,101842.03
2023-04-25T11:36:55.339Z,101842.78
2023-04-25T11:39:23.404Z,101836.50
2023-04-25T11:41:51.483Z,101844.75
2023-04-25T11:44:19.448Z,101838.13
2023-04-25T11:46:47.439Z,101841.41
2023-04-25T11:49:15.579Z,101840.34
2023-04-25T11:51:44.334Z,101830.59
2023-04-25T11:54:13.974Z,101829.84
2023-04-25T11:56:43.421Z,101828.56
2023-04-25T11:59:14.003Z,101820.13
2023-04-25T12:01:43.991Z,101818.94
2023-04-25T12:04:15.238Z,101824.56
2023-04-25T12:06:43.884Z,101818.13
2023-04-25T12:09:16.788Z,101823.00
2023-04-25T12:11:44.916Z,101820.75
2023-04-25T12:14:12.834Z,101818.91
2023-04-25T12:16:44.667Z,101815.63
2023-04-25T12:19:15.385Z,101808.09
2023-04-25T12:21:57.249Z,101814.00
2023-04-25T12:24:29.070Z,101807.03
2023-04-25T12:27:01.128Z,101814.03
2023-04-25T12:29:34.823Z,101812.41
2023-04-25T12:32:06.982Z,101809.25
2023-04-25T12:34:36.933Z,101812.97
2023-04-25T12:37:04.979Z,101817.25
2023-04-25T12:39:34.252Z,101800.78
2023-04-25T12:42:02.172Z,101790.78
2023-04-25T12:44:30.158Z,101799.84
2023-04-25T12:46:58.119Z,101796.53
2023-04-25T12:49:26.544Z,101797.59
2023-04-25T12:51:54.475Z,101800.38
2023-04-25T12:54:22.326Z,101801.34
2023-04-25T12:56:52.113Z,101805.59
2023-04-25T12:59:21.207Z,101801.81
2023-04-25T13:01:49.360Z,101809.13
2023-04-25T13:04:17.653Z,101803.75
2023-04-25T13:06:45.807Z,101808.19
2023-04-25T13:09:14.250Z,101800.78
2023-04-25T13:11:42.634Z,101802.47
2023-04-25T13:14:11.942Z,101799.88
2023-04-25T13:16:39.967Z,101802.34
2023-04-25T13:19:09.255Z,101799.06
2023-04-25T13:21:37.141Z,101805.56
2023-04-25T13:24:05.653Z,101799.13
2023-04-25T13:26:33.666Z,101792.19
2023-04-25T13:29:03.993Z,101796.31
2023-04-25T13:31:33.374Z,101792.88
2023-04-25T13:34:01.300Z,101791.63
2023-04-25T13:36:29.224Z,101793.28
2023-04-25T13:38:57.098Z,101794.78
2023-04-25T13:41:25.044Z,101792.38
2023-04-25T13:43:53.617Z,101787.84
2023-04-25T13:46:40.808Z,101787.38
2023-04-25T13:49:13.146Z,101787.13
2023-04-25T13:51:41.581Z,101791.31
2023-04-25T13:54:09.735Z,101788.72
2023-04-25T13:56:37.761Z,101790.03
2023-04-25T13:59:05.735Z,101784.75
2023-04-25T14:01:35.447Z,101775.13
2023-04-25T14:04:04.824Z,101784.97
2023-04-25T14:06:34.863Z,101775.75
2023-04-25T14:09:03.488Z,101771.59
2023-04-25T14:11:31.525Z,101775.31
2023-04-25T14:14:00.834Z,101771.28
2023-04-25T14:16:28.940Z,101764.44
2023-04-25T14:18:57.211Z,101766.97
2023-04-25T14:21:25.190Z,101767.91
2023-04-25T14:23:54.790Z,101763.16
2023-04-25T14:26:22.984Z,101769.91
2023-04-25T14:28:51.130Z,101758.47
2023-04-25T14:31:19.111Z,101759.50
2023-04-25T14:33:47.129Z,101752.81
2023-04-25T14:36:15.387Z,101755.72
2023-04-25T14:38:43.277Z,101758.09
2023-04-25T14:41:13.039Z,101757.59
2023-04-25T14:43:42.328Z,101765.03
2023-04-25T14:46:10.498Z,101752.66
2023-04-25T14:48:38.629Z,101752.94
2023-04-25T14:51:07.012Z,101755.28
2023-04-25T14:53:34.967Z,101747.84
2023-04-25T14:56:02.887Z,101746.81
2023-04-25T14:58:33.089Z,101742.81
2023-04-25T15:01:01.017Z,101745.16
2023-04-25T15:03:29.000Z,101747.22
2023-04-25T15:05:57.279Z,101738.22
2023-04-25T15:08:25.175Z,101741.97
2023-04-25T15:10:53.152Z,101734.38
2023-04-25T15:13:21.323Z,101731.38
2023-04-25T15:15:52.444Z,101728.91
2023-04-25T15:18:22.857Z,101734.41
2023-04-25T15:20:50.951Z,101723.78
2023-04-25T15:23:19.066Z,101712.72
2023-04-25T15:25:47.055Z,101721.63
2023-04-25T15:28:16.845Z,101719.41
2023-04-25T15:30:44.763Z,101724.09
2023-04-25T15:33:14.404Z,101723.44
2023-04-25T15:35:42.321Z,101715.34
2023-04-25T15:38:11.305Z,101718.91
2023-04-25T15:40:39.296Z,101714.06
2023-04-25T15:43:07.345Z,101703.91
2023-04-25T15:45:37.676Z,101704.09
2023-04-25T15:48:06.254Z,101711.19
2023-04-25T15:50:36.444Z,101712.66
2023-04-25T15:53:05.842Z,101701.88
2023-04-25T15:55:35.396Z,101706.44
2023-04-25T15:58:03.253Z,101710.59
2023-04-25T16:00:31.390Z,101706.91
2023-04-25T16:02:59.424Z,101703.19
2023-04-25T16:05:27.985Z,101708.16
2023-04-25T16:07:57.262Z,101709.47
2023-04-25T16:10:25.371Z,101707.84
2023-04-25T16:12:53.788Z,101705.38
2023-04-25T16:15:21.731Z,101696.22
2023-04-25T16:17:49.686Z,101696.41
2023-04-25T16:20:17.933Z,101701.75
2023-04-25T16:22:46.008Z,101703.25
2023-04-25T16:25:15.312Z,101700.41
2023-04-25T16:27:43.200Z,101701.72
2023-04-25T16:30:11.964Z,101703.94
2023-04-25T16:32:42.161Z,101699.03
2023-04-25T16:35:12.319Z,101703.06
2023-04-25T16:37:40.233Z,101701.34
2023-04-25T16:40:09.997Z,101702.13
2023-04-25T16:42:39.452Z,101692.41
2023-04-25T16:45:08.072Z,101697.00
2023-04-25T16:47:36.498Z,101686.84
2023-04-25T16:50:05.065Z,101687.28
2023-04-25T16:52:33.007Z,101681.16
2023-04-25T16:55:01.532Z,101680.19
2023-04-25T16:57:29.453Z,101675.34
2023-04-25T16:59:58.691Z,101671.63
2023-04-25T17:02:27.231Z,101665.72
2023-04-25T17:04:55.285Z,101665.78
2023-04-25T17:07:24.624Z,101663.91
2023-04-25T17:09:52.695Z,101666.59
2023-04-25T17:12:20.763Z,101659.22
2023-04-25T17:14:48.676Z,101654.13
2023-04-25T17:17:18.892Z,101658.31
2023-04-25T17:19:47.265Z,101651.31
2023-04-25T17:22:15.700Z,101652.81
2023-04-25T17:24:43.896Z,101648.56
2023-04-25T17:27:11.969Z,101646.91
2023-04-25T17:29:39.814Z,101646.91
2023-04-25T17:32:07.635Z,101651.47
2023-04-25T17:34:37.549Z,101653.50
2023-04-25T17:37:07.053Z,101655.44
2023-04-25T17:39:35.001Z,101672.88
2023-04-25T17:42:02.957Z,101668.19
2023-04-25T17:44:30.979Z,101669.03
2023-04-25T17:46:59.042Z,101672.75
2023-04-25T17:49:27.026Z,101678.31
2023-04-25T17:51:56.286Z,101684.38
2023-04-25T17:54:24.688Z,101687.81
2023-04-25T17:56:53.002Z,101691.69
2023-04-25T17:59:20.893Z,101701.50
2023-04-25T18:01:48.949Z,101690.69
2023-04-25T18:04:17.555Z,101705.94
2023-04-25T18:06:45.466Z,101705.78
2023-04-25T18:09:18.226Z,101706.47
2023-04-25T18:11:46.445Z,101709.00
2023-04-25T18:14:15.455Z,101714.09
2023-04-25T18:16:43.796Z,101716.06
2023-04-25T18:19:15.601Z,101711.91
2023-04-25T18:21:43.612Z,101707.56
2023-04-25T18:24:13.686Z,101704.56
2023-04-25T18:26:42.989Z,101707.84
2023-04-25T18:29:16.318Z,101706.31
2023-04-25T18:31:50.348Z,101706.69
2023-04-25T18:34:20.491Z,101714.22
2023-04-25T18:36:48.612Z,101712.25
2023-04-25T18:39:22.563Z,101724.19
2023-04-25T18:41:59.703Z,101725.56
2023-04-25T18:44:32.310Z,101717.78
2023-04-25T18:47:00.290Z,101725.38
2023-04-25T18:49:28.304Z,101729.31
2023-04-25T18:51:57.513Z,101726.97
2023-04-25T18:54:25.447Z,101728.44
2023-04-25T18:56:57.432Z,101736.94
2023-04-25T18:59:26.272Z,101738.44
2023-04-25T19:01:54.591Z,101738.84
2023-04-25T19:04:22.739Z,101745.59
2023-04-25T19:06:51.468Z,101740.56
2023-04-25T19:09:19.433Z,101749.75
2023-04-25T19:11:47.413Z,101753.78
2023-04-25T19:14:16.750Z,101756.72
2023-04-25T19:16:44.686Z,101755.19
2023-04-25T19:19:12.684Z,101761.75
2023-04-25T19:21:41.643Z,101773.59
2023-04-25T19:24:09.889Z,101776.63
2023-04-25T19:26:38.190Z,101783.19
2023-04-25T19:29:08.088Z,101777.28
2023-04-25T19:31:38.635Z,101772.28
2023-04-25T19:34:06.982Z,101783.72
2023-04-25T19:36:35.050Z,101783.78
2023-04-25T19:39:04.413Z,101789.22
2023-04-25T19:41:33.440Z,101793.00
2023-04-25T19:44:01.839Z,101797.53
2023-04-25T19:46:29.755Z,101796.75
2023-04-25T19:48:59.073Z,101795.94
2023-04-25T19:51:27.882Z,101792.38
2023-04-25T19:53:55.891Z,101803.03
2023-04-25T19:56:24.392Z,101797.72
2023-04-25T19:58:52.609Z,101800.41
2023-04-25T20:01:22.365Z,101799.56
2023-04-25T20:03:51.792Z,101802.22
2023-04-25T20:06:21.758Z,101795.22
2023-04-25T20:08:51.164Z,101801.56
2023-04-25T20:11:19.025Z,101807.91
2023-04-25T20:13:47.160Z,101808.94
2023-04-25T20:16:19.717Z,101810.94
2023-04-25T20:18:48.333Z,101802.31
2023-04-25T20:21:16.928Z,101804.34
2023-04-25T20:23:46.228Z,101800.91
2023-04-25T20:26:14.161Z,101804.59
2023-04-25T20:28:42.838Z,101811.78
2023-04-25T20:31:10.978Z,101813.66
2023-04-25T20:33:39.318Z,101805.16
2023-04-25T20:36:07.784Z,101796.41
2023-04-25T20:38:35.744Z,101797.53
2023-04-25T20:41:04.999Z,101793.22
2023-04-25T20:43:33.457Z,101785.41
2023-04-25T20:46:01.845Z,101781.19
2023-04-25T20:48:29.782Z,101771.63
2023-04-25T20:50:58.594Z,101769.13
2023-04-25T20:53:28.544Z,101771.03
2023-04-25T20:55:56.430Z,101777.19
2023-04-25T20:58:26.426Z,101779.16
2023-04-25T21:00:54.898Z,101778.28
2023-04-25T21:03:22.977Z,101777.31
2023-04-25T21:05:51.585Z,101781.78
2023-04-25T21:08:19.511Z,101787.16
2023-04-25T21:10:47.436Z,101783.66
2023-04-25T21:13:15.393Z,101777.47
2023-04-25T21:15:44.688Z,101782.94
2023-04-25T21:18:12.917Z,101788.28
2023-04-25T21:20:41.229Z,101784.72
2023-04-25T21:23:09.127Z,101787.38
2023-04-25T21:25:37.024Z,101784.78
2023-04-25T21:28:04.928Z,101786.50
2023-04-25T21:30:32.829Z,101782.16
2023-04-25T21:33:02.251Z,101785.75
2023-04-25T21:35:30.230Z,101783.13
2023-04-25T21:37:58.449Z,101792.09
2023-04-25T21:40:26.491Z,101779.78
2023-04-25T21:42:54.389Z,101793.09
2023-04-25T21:45:22.306Z,101793.09
2023-04-25T21:47:50.798Z,101790.50
2023-04-25T21:50:20.628Z,101790.44
2023-04-25T21:52:49.251Z,101785.16
2023-04-25T21:55:17.619Z,101786.03
2023-04-25T21:57:46.365Z,101786.94
2023-04-25T22:00:24.497Z,101774.56
2023-04-25T22:02:53.226Z,101771.03
2023-04-25T22:05:22.775Z,101773.75
2023-04-25T22:07:51.023Z,101778.28
2023-04-25T22:10:19.655Z,101775.72
2023-04-25T22:12:50.768Z,101787.28
2023-04-25T22:15:19.410Z,101773.09
2023-04-25T22:17:47.462Z,101770.50
2023-04-25T22:20:15.738Z,101763.41
2023-04-25T22:22:45.147Z,101763.41
2023-04-25T22:25:13.026Z,101755.41
2023-04-25T22:27:42.901Z,101751.09
2023-04-25T22:30:12.994Z,101760.00
2023-04-25T22:32:41.560Z,101745.78
2023-04-25T22:35:10.501Z,101749.25
2023-04-25T22:37:38.595Z,101741.25
2023-04-25T22:40:09.281Z,101733.31
2023-04-25T22:42:40.842Z,101741.13
2023-04-25T22:45:09.672Z,101737.56
2023-04-25T22:47:37.809Z,101734.03
2023-04-25T22:50:08.654Z,101723.31
2023-04-25T22:52:36.551Z,101714.44
2023-04-25T22:55:04.878Z,101714.38
2023-04-25T22:57:34.232Z,101710.94
2023-04-25T23:00:02.141Z,101722.47
2023-04-25T23:02:30.241Z,101721.66
2023-04-25T23:05:00.238Z,101722.56
2023-04-25T23:07:29.225Z,101725.16
2023-04-25T23:09:57.197Z,101724.28
2023-04-25T23:12:25.038Z,101722.41
2023-04-25T23:14:56.108Z,101717.16
2023-04-25T23:17:24.012Z,101716.34
2023-04-25T23:19:51.882Z,101722.56
2023-04-25T23:22:19.728Z,101726.06
2023-04-25T23:24:47.590Z,101721.75
2023-04-25T23:27:15.434Z,101735.75
2023-04-25T23:29:43.308Z,101722.41
2023-04-25T23:32:12.719Z,101724.13
2023-04-25T23:34:40.732Z,101721.53
2023-04-25T23:37:08.613Z,101725.97
2023-04-25T23:39:36.900Z,101724.16
2023-04-25T23:42:04.912Z,101725.03
2023-04-25T23:44:32.851Z,101725.03
2023-04-25T23:47:01.182Z,101712.66
2023-04-25T23:49:30.431Z,101706.44
2023-04-25T23:51:58.289Z,101703.72
2023-04-25T23:54:26.752Z,101701.13
2023-04-25T23:56:54.710Z,101697.59
2023-04-25T23:59:22.728Z,101691.53
